Terminal Aerodrome Forecast
Issued by NWS

Home | Current Version | Previous Version | Text Only | Print | Product List | Glossary Off
Versions: 1 2 3 4 5 6 7 8 9 10 11 12 13 14 15 16 17 18 19 20 21 22

000
FTUS43 KABR 270847 AAB
TAFPIR
TAF AMD
KPIR 270847Z 2709/2806 27007KT P6SM -RA BKN100 BKN120
     FM271400 05010KT P6SM -SHRA OVC050
     FM271900 03017KT P6SM -RA OVC025=

USA.gov is the U.S. government's official web portal to all federal, state and local government web resources and services.